createdAt,value
2022-10-25T00:00:58.574Z,94479.56
2022-10-25T00:03:25.077Z,94484.19
2022-10-25T00:05:51.467Z,94480.25
2022-10-25T00:08:17.904Z,94479.97
2022-10-25T00:10:44.311Z,94488.28
2022-10-25T00:13:10.689Z,94480.91
2022-10-25T00:15:37.504Z,94482.19
2022-10-25T00:18:04.051Z,94484.03
2022-10-25T00:20:30.497Z,94489.25
2022-10-25T00:22:57.597Z,94485.38
2022-10-25T00:25:24.111Z,94475.22
2022-10-25T00:27:50.527Z,94475.69
2022-10-25T00:30:17.096Z,94480.91
2022-10-25T00:32:43.649Z,94479.41
2022-10-25T00:35:10.232Z,94473.41
2022-10-25T00:37:37.314Z,94483.63
2022-10-25T00:40:04.692Z,94467.69
2022-10-25T00:42:31.090Z,94479.56
2022-10-25T00:45:01.640Z,94478.03
2022-10-25T00:47:41.157Z,94485.38
2022-10-25T00:50:22.844Z,94483.81
2022-10-25T00:52:53.332Z,94480.72
2022-10-25T00:55:24.499Z,94489.13
2022-10-25T00:58:03.800Z,94485.22
2022-10-25T01:00:30.302Z,94476.63
2022-10-25T01:05:28.392Z,94481.06
2022-10-25T01:07:54.800Z,94476.63
2022-10-25T01:10:21.365Z,94480.28
2022-10-25T01:12:51.275Z,94479.22
2022-10-25T01:15:22.747Z,94476.16
2022-10-25T01:18:07.293Z,94472.84
2022-10-25T01:20:59.222Z,94472.91
2022-10-25T01:23:53.696Z,94465.38
2022-10-25T01:27:00.597Z,94474.25
2022-10-25T01:30:00.692Z,94464.59
2022-10-25T01:32:35.206Z,94469.03
2022-10-25T01:35:13.794Z,94460.75
2022-10-25T01:37:58.933Z,94454.84
2022-10-25T01:40:34.473Z,94460.41
2022-10-25T01:43:11.726Z,94465.91
2022-10-25T01:45:48.993Z,94463.63
2022-10-25T01:48:30.181Z,94453.94
2022-10-25T01:51:05.635Z,94458.41
2022-10-25T01:53:31.989Z,94467.28
2022-10-25T01:56:03.917Z,94467.84
2022-10-25T01:59:21.453Z,94470.44
2022-10-25T02:02:04.358Z,94463.66
2022-10-25T02:04:47.396Z,94467.63
2022-10-25T02:07:38.521Z,94466.09
2022-10-25T02:10:20.872Z,94466.38
2022-10-25T02:13:02.294Z,94474.41
2022-10-25T02:15:34.622Z,94468.41
2022-10-25T02:18:04.539Z,94466.09
2022-10-25T02:20:34.490Z,94467.34
2022-10-25T02:23:04.776Z,94468.88
2022-10-25T02:25:35.948Z,94465.72
2022-10-25T02:28:07.039Z,94464.97
2022-10-25T02:30:35.615Z,94463.41
2022-10-25T02:33:02.500Z,94462.63
2022-10-25T02:35:28.965Z,94460.00
2022-10-25T02:37:55.333Z,94466.28
2022-10-25T02:40:22.145Z,94463.19
2022-10-25T02:42:48.586Z,94460.31
2022-10-25T02:45:14.993Z,94457.50
2022-10-25T02:47:41.397Z,94471.50
2022-10-25T02:50:08.517Z,94471.78
2022-10-25T02:52:34.934Z,94468.41
2022-10-25T02:55:01.818Z,94467.34
2022-10-25T02:57:37.823Z,94465.31
2022-10-25T03:00:06.599Z,94465.78
2022-10-25T03:02:33.174Z,94470.22
2022-10-25T03:04:59.587Z,94473.13
2022-10-25T03:07:26.001Z,94470.53
2022-10-25T03:09:52.380Z,94478.34
2022-10-25T03:12:18.744Z,94472.34
2022-10-25T03:14:45.121Z,94467.91
2022-10-25T03:17:11.716Z,94464.53
2022-10-25T03:19:38.088Z,94468.97
2022-10-25T03:22:04.450Z,94464.53
2022-10-25T03:24:30.846Z,94462.97
2022-10-25T03:26:57.231Z,94470.78
2022-10-25T03:29:23.631Z,94473.41
2022-10-25T03:31:50.033Z,94465.88
2022-10-25T03:34:16.403Z,94461.22
2022-10-25T03:36:42.857Z,94465.28
2022-10-25T03:39:10.285Z,94463.53
2022-10-25T03:41:36.699Z,94467.25
2022-10-25T03:44:03.462Z,94471.97
2022-10-25T03:46:29.855Z,94472.03
2022-10-25T03:48:56.200Z,94470.56
2022-10-25T03:51:22.602Z,94481.56
2022-10-25T03:53:49.171Z,94477.09
2022-10-25T03:56:15.565Z,94480.00
2022-10-25T03:58:41.974Z,94483.66
2022-10-25T04:01:09.786Z,94491.47
2022-10-25T04:03:36.893Z,94483.94
2022-10-25T04:06:03.281Z,94488.31
2022-10-25T04:08:29.774Z,94478.09
2022-10-25T04:10:56.188Z,94476.19
2022-10-25T04:13:22.553Z,94476.19
2022-10-25T04:15:48.996Z,94479.50
2022-10-25T04:18:15.361Z,94484.97
2022-10-25T04:20:41.739Z,94485.56
2022-10-25T04:23:08.104Z,94493.19
2022-10-25T04:25:34.573Z,94486.97
2022-10-25T04:28:01.030Z,94488.31
2022-10-25T04:30:27.586Z,94493.03
2022-10-25T04:32:53.998Z,94489.94
2022-10-25T04:35:20.669Z,94487.97
2022-10-25T04:37:47.037Z,94492.09
2022-10-25T04:40:13.484Z,94488.53
2022-10-25T04:42:39.906Z,94498.50
2022-10-25T04:45:06.664Z,94504.34
2022-10-25T04:47:33.901Z,94485.25
2022-10-25T04:50:00.375Z,94507.31
2022-10-25T04:52:28.864Z,94513.56
2022-10-25T04:54:55.712Z,94504.47
2022-10-25T04:57:22.251Z,94502.34
2022-10-25T04:59:48.685Z,94513.78
2022-10-25T05:02:15.129Z,94497.88
2022-10-25T05:04:41.858Z,94503.56
2022-10-25T05:07:08.241Z,94501.25
2022-10-25T05:09:34.603Z,94510.09
2022-10-25T05:12:00.985Z,94505.97
2022-10-25T05:14:27.349Z,94511.66
2022-10-25T05:16:53.699Z,94515.53
2022-10-25T05:19:20.070Z,94514.19
2022-10-25T05:21:47.699Z,94520.41
2022-10-25T05:24:14.092Z,94519.84
2022-10-25T05:26:40.498Z,94519.91
2022-10-25T05:29:10.229Z,94521.22
2022-10-25T05:31:38.561Z,94516.31
2022-10-25T05:34:04.945Z,94522.78
2022-10-25T05:36:33.262Z,94520.41
2022-10-25T05:39:03.639Z,94516.19
2022-10-25T05:41:33.214Z,94526.81
2022-10-25T05:44:02.593Z,94525.19
2022-10-25T05:46:28.946Z,94530.91
2022-10-25T05:48:55.392Z,94529.66
2022-10-25T05:51:34.673Z,94534.06
2022-10-25T05:54:06.195Z,94541.53
2022-10-25T05:56:34.041Z,94545.22
2022-10-25T05:59:10.172Z,94545.22
2022-10-25T06:01:46.851Z,94545.13
2022-10-25T06:04:14.487Z,94544.09
2022-10-25T06:06:42.168Z,94547.69
2022-10-25T06:09:09.437Z,94557.84
2022-10-25T06:11:36.405Z,94556.50
2022-10-25T06:14:03.746Z,94555.94
2022-10-25T06:16:30.416Z,94548.38
2022-10-25T06:18:56.822Z,94556.13
2022-10-25T06:21:25.797Z,94550.66
2022-10-25T06:23:53.120Z,94551.91
2022-10-25T06:26:23.575Z,94561.56
2022-10-25T06:28:55.174Z,94561.00
2022-10-25T06:31:21.885Z,94561.50
2022-10-25T06:33:48.403Z,94572.63
2022-10-25T06:36:17.449Z,94581.72
2022-10-25T06:38:45.114Z,94578.06
2022-10-25T06:41:13.937Z,94574.97
2022-10-25T06:43:40.402Z,94580.66
2022-10-25T06:46:18.049Z,94589.53
2022-10-25T06:48:44.418Z,94586.13
2022-10-25T06:51:10.831Z,94580.66
2022-10-25T06:53:38.353Z,94575.44
2022-10-25T06:56:13.424Z,94585.50
2022-10-25T06:58:41.500Z,94582.63
2022-10-25T07:01:11.155Z,94581.78
2022-10-25T07:03:37.771Z,94586.91
2022-10-25T07:06:06.294Z,94590.53
2022-10-25T07:08:34.050Z,94594.41
2022-10-25T07:11:01.950Z,94586.22
2022-10-25T07:13:30.252Z,94586.16
2022-10-25T07:16:07.907Z,94594.09
2022-10-25T07:18:35.589Z,94591.41
2022-10-25T07:21:04.415Z,94593.97
2022-10-25T07:23:31.298Z,94588.97
2022-10-25T07:25:58.387Z,94593.81
2022-10-25T07:28:25.064Z,94588.78
2022-10-25T07:30:51.857Z,94598.88
2022-10-25T07:33:20.657Z,94603.22
2022-10-25T07:35:59.147Z,94604.00
2022-10-25T07:38:32.862Z,94603.53
2022-10-25T07:40:59.812Z,94610.19
2022-10-25T07:43:27.256Z,94613.31
2022-10-25T07:45:54.565Z,94616.88
2022-10-25T07:48:21.176Z,94626.75
2022-10-25T07:50:47.913Z,94622.78
2022-10-25T07:53:14.260Z,94623.78
2022-10-25T07:55:40.776Z,94614.69
2022-10-25T07:58:09.735Z,94625.31
2022-10-25T08:00:36.749Z,94632.31
2022-10-25T08:03:04.151Z,94633.47
2022-10-25T08:05:30.649Z,94630.50
2022-10-25T08:07:56.998Z,94627.22
2022-10-25T08:10:23.392Z,94626.06
2022-10-25T08:12:50.334Z,94624.31
2022-10-25T08:15:18.110Z,94621.03
2022-10-25T08:17:44.993Z,94622.41
2022-10-25T08:20:11.676Z,94629.75
2022-10-25T08:22:38.305Z,94617.25
2022-10-25T08:25:05.316Z,94626.00
2022-10-25T08:27:32.251Z,94630.53
2022-10-25T08:29:58.634Z,94630.44
2022-10-25T08:32:25.017Z,94626.75
2022-10-25T08:34:51.423Z,94610.38
2022-10-25T08:37:17.873Z,94615.97
2022-10-25T08:39:44.911Z,94620.97
2022-10-25T08:42:24.004Z,94622.88
2022-10-25T08:45:21.018Z,94623.25
2022-10-25T08:47:53.318Z,94618.38
2022-10-25T08:50:37.587Z,94623.97
2022-10-25T08:53:08.916Z,94620.94
2022-10-25T08:55:41.644Z,94622.38
2022-10-25T08:59:02.647Z,94613.97
2022-10-25T09:01:36.884Z,94618.97
2022-10-25T09:04:03.415Z,94627.06
2022-10-25T09:06:44.524Z,94620.63
2022-10-25T09:09:20.202Z,94619.59
2022-10-25T09:12:05.133Z,94628.47
2022-10-25T09:14:58.985Z,94616.75
2022-10-25T09:17:48.522Z,94616.97
2022-10-25T09:20:24.868Z,94617.78
2022-10-25T09:23:00.752Z,94619.50
2022-10-25T09:25:39.463Z,94625.41
2022-10-25T09:28:19.062Z,94619.09
2022-10-25T09:30:46.163Z,94621.91
2022-10-25T09:33:18.094Z,94627.03
2022-10-25T09:35:48.443Z,94629.97
2022-10-25T09:38:33.285Z,94620.72
2022-10-25T09:41:11.514Z,94632.47
2022-10-25T09:43:49.041Z,94630.78
2022-10-25T09:46:22.017Z,94633.53
2022-10-25T09:49:25.993Z,94640.50
2022-10-25T09:52:30.173Z,94640.81
2022-10-25T09:55:16.017Z,94640.34
2022-10-25T09:57:42.896Z,94632.94
2022-10-25T10:00:13.839Z,94640.47
2022-10-25T10:02:41.239Z,94643.59
2022-10-25T10:05:22.354Z,94637.72
2022-10-25T10:07:50.644Z,94645.41
2022-10-25T10:10:24.853Z,94648.81
2022-10-25T10:13:01.220Z,94638.91
2022-10-25T10:15:34.949Z,94634.72
2022-10-25T10:18:36.858Z,94626.81
2022-10-25T10:21:12.193Z,94623.25
2022-10-25T10:23:41.307Z,94622.91
2022-10-25T10:26:35.717Z,94624.00
2022-10-25T10:29:07.903Z,94613.41
2022-10-25T10:31:41.117Z,94609.81
2022-10-25T10:34:24.027Z,94611.88
2022-10-25T10:37:16.516Z,94611.66
2022-10-25T10:39:59.429Z,94607.56
2022-10-25T10:45:08.989Z,94605.56
2022-10-25T10:47:39.903Z,94612.22
2022-10-25T10:50:25.547Z,94607.25
2022-10-25T10:53:04.947Z,94603.44
2022-10-25T10:55:33.109Z,94612.56
2022-10-25T10:58:17.296Z,94610.16
2022-10-25T11:00:58.198Z,94608.66
2022-10-25T11:03:53.446Z,94600.53
2022-10-25T11:06:31.907Z,94605.06
2022-10-25T11:09:25.420Z,94604.47
2022-10-25T11:12:14.801Z,94596.13
2022-10-25T11:14:41.387Z,94598.97
2022-10-25T11:17:15.137Z,94599.97
2022-10-25T11:20:19.226Z,94587.00
2022-10-25T11:23:13.643Z,94593.47
2022-10-25T11:26:02.288Z,94583.69
2022-10-25T11:28:59.586Z,94588.72
2022-10-25T11:31:56.733Z,94592.50
2022-10-25T11:34:29.049Z,94593.09
2022-10-25T11:37:20.727Z,94586.22
2022-10-25T11:40:07.884Z,94595.25
2022-10-25T11:42:59.801Z,94581.19
2022-10-25T11:45:42.904Z,94571.50
2022-10-25T11:48:54.584Z,94578.78
2022-10-25T11:51:44.290Z,94579.38
2022-10-25T11:54:39.608Z,94576.16
2022-10-25T11:57:23.097Z,94568.22
2022-10-25T12:00:16.116Z,94571.06
2022-10-25T12:03:12.725Z,94578.13
2022-10-25T12:05:39.063Z,94565.34
2022-10-25T12:08:26.370Z,94573.94
2022-10-25T12:11:10.435Z,94583.31
2022-10-25T12:13:42.537Z,94581.50
2022-10-25T12:16:15.586Z,94573.41
2022-10-25T12:18:48.044Z,94576.25
2022-10-25T12:21:27.762Z,94568.72
2022-10-25T12:23:55.061Z,94567.78
2022-10-25T12:26:34.784Z,94576.84
2022-10-25T12:29:11.890Z,94571.31
2022-10-25T12:31:42.400Z,94567.09
2022-10-25T12:34:47.638Z,94566.75
2022-10-25T12:37:28.552Z,94560.66
2022-10-25T12:39:56.310Z,94554.00
2022-10-25T12:43:03.323Z,94546.63
2022-10-25T12:45:57.471Z,94560.03
2022-10-25T12:48:59.144Z,94547.69
2022-10-25T12:51:45.946Z,94542.19
2022-10-25T12:54:31.377Z,94542.41
2022-10-25T12:57:17.689Z,94541.84
2022-10-25T13:00:01.757Z,94532.91
2022-10-25T13:03:07.472Z,94536.31
2022-10-25T13:06:07.762Z,94536.94
2022-10-25T13:08:34.824Z,94544.75
2022-10-25T13:11:06.994Z,94539.22
2022-10-25T13:13:48.660Z,94532.75
2022-10-25T13:16:24.358Z,94535.44
2022-10-25T13:19:49.731Z,94532.94
2022-10-25T13:22:38.917Z,94539.25
2022-10-25T13:25:17.702Z,94541.84
2022-10-25T13:28:16.471Z,94533.94
2022-10-25T13:30:44.094Z,94531.09
2022-10-25T13:33:21.453Z,94530.81
2022-10-25T13:35:50.716Z,94522.47
2022-10-25T13:38:36.556Z,94522.16
2022-10-25T13:41:11.790Z,94530.75
2022-10-25T13:44:01.424Z,94518.91
2022-10-25T13:46:36.288Z,94528.47
2022-10-25T13:49:24.864Z,94530.59
2022-10-25T13:51:56.101Z,94525.28
2022-10-25T13:54:22.802Z,94520.69
2022-10-25T13:56:52.207Z,94521.16
2022-10-25T13:59:47.866Z,94523.19
2022-10-25T14:02:20.444Z,94531.69
2022-10-25T14:04:47.169Z,94525.75
2022-10-25T14:07:41.756Z,94520.03
2022-10-25T14:10:23.049Z,94516.31
2022-10-25T14:12:53.444Z,94522.63
2022-10-25T14:15:36.325Z,94513.31
2022-10-25T14:18:08.438Z,94507.75
2022-10-25T14:20:36.608Z,94499.16
2022-10-25T14:23:06.552Z,94507.34
2022-10-25T14:26:03.551Z,94504.94
2022-10-25T14:28:32.448Z,94502.00
2022-10-25T14:31:04.256Z,94505.00
2022-10-25T14:33:35.533Z,94511.84
2022-10-25T14:36:25.888Z,94508.06
2022-10-25T14:38:55.177Z,94506.78
2022-10-25T14:41:33.070Z,94513.47
2022-10-25T14:44:00.470Z,94515.19
2022-10-25T14:46:30.049Z,94516.59
2022-10-25T14:48:58.426Z,94516.06
2022-10-25T14:51:31.717Z,94518.13
2022-10-25T14:54:00.872Z,94504.91
2022-10-25T14:56:31.495Z,94495.31
2022-10-25T14:58:59.431Z,94499.63
2022-10-25T15:01:26.334Z,94493.31
2022-10-25T15:03:56.218Z,94498.56
2022-10-25T15:06:24.992Z,94492.19
2022-10-25T15:09:17.611Z,94486.81
2022-10-25T15:12:03.841Z,94481.44
2022-10-25T15:14:30.942Z,94473.44
2022-10-25T15:17:16.436Z,94470.56
2022-10-25T15:20:06.570Z,94479.81
2022-10-25T15:22:42.885Z,94480.84
2022-10-25T15:25:27.709Z,94485.44
2022-10-25T15:27:54.704Z,94485.16
2022-10-25T15:30:45.343Z,94483.72
2022-10-25T15:33:18.129Z,94490.91
2022-10-25T15:36:03.667Z,94489.97
2022-10-25T15:39:05.323Z,94484.06
2022-10-25T15:41:22.603Z,94487.66
2022-10-25T15:43:49.133Z,94482.47
2022-10-25T15:46:21.563Z,94477.41
2022-10-25T15:48:48.706Z,94484.38
2022-10-25T15:51:15.126Z,94473.81
2022-10-25T15:53:41.493Z,94483.66
2022-10-25T15:56:13.186Z,94484.22
2022-10-25T15:58:39.562Z,94488.56
2022-10-25T16:01:06.698Z,94486.44
2022-10-25T16:03:33.140Z,94486.28
2022-10-25T16:05:59.572Z,94481.25
2022-10-25T16:08:26.021Z,94481.09
2022-10-25T16:10:53.185Z,94485.09
2022-10-25T16:13:33.154Z,94484.59
2022-10-25T16:16:04.601Z,94490.41
2022-10-25T16:18:38.335Z,94498.50
2022-10-25T16:21:04.772Z,94499.44
2022-10-25T16:23:31.132Z,94504.69
2022-10-25T16:25:58.088Z,94509.56
2022-10-25T16:30:55.835Z,94501.38
2022-10-25T16:33:22.189Z,94501.72
2022-10-25T16:35:48.587Z,94514.41
2022-10-25T16:38:16.507Z,94510.59
2022-10-25T16:40:42.897Z,94502.56
2022-10-25T16:43:12.241Z,94499.94
2022-10-25T16:45:38.634Z,94499.06
2022-10-25T16:48:05.863Z,94501.03
2022-10-25T16:50:33.835Z,94509.38
2022-10-25T16:53:03.654Z,94507.22
2022-10-25T16:55:31.198Z,94504.28
2022-10-25T16:57:58.854Z,94500.25
2022-10-25T17:00:26.660Z,94489.47
2022-10-25T17:02:53.016Z,94497.94
2022-10-25T17:05:25.194Z,94491.78
2022-10-25T17:07:52.380Z,94495.31
2022-10-25T17:10:20.855Z,94491.00
2022-10-25T17:12:52.168Z,94495.31
2022-10-25T17:15:20.391Z,94500.25
2022-10-25T17:17:47.346Z,94499.44
2022-10-25T17:20:15.978Z,94500.66
2022-10-25T17:22:42.479Z,94491.88
2022-10-25T17:25:09.726Z,94507.59
2022-10-25T17:27:38.040Z,94500.81
2022-10-25T17:30:05.972Z,94509.00
2022-10-25T17:32:32.367Z,94503.59
2022-10-25T17:34:58.759Z,94497.09
2022-10-25T17:37:25.228Z,94486.94
2022-10-25T17:39:51.620Z,94488.28
2022-10-25T17:42:19.261Z,94488.16
2022-10-25T17:44:46.064Z,94480.88
2022-10-25T17:47:14.119Z,94491.97
2022-10-25T17:49:40.826Z,94492.91
2022-10-25T17:52:07.864Z,94492.72
2022-10-25T17:54:34.415Z,94486.50
2022-10-25T17:57:02.789Z,94491.75
2022-10-25T17:59:30.174Z,94492.34
2022-10-25T18:01:57.610Z,94485.09
2022-10-25T18:04:24.324Z,94491.34
2022-10-25T18:06:50.883Z,94495.66
2022-10-25T18:09:17.787Z,94486.97
2022-10-25T18:11:44.786Z,94483.41
2022-10-25T18:14:11.168Z,94485.28
2022-10-25T18:16:37.598Z,94482.47
2022-10-25T18:19:05.790Z,94486.16
2022-10-25T18:21:33.110Z,94482.31
2022-10-25T18:24:02.305Z,94475.03
2022-10-25T18:26:29.489Z,94480.13
2022-10-25T18:28:57.813Z,94481.19
2022-10-25T18:31:26.912Z,94473.09
2022-10-25T18:33:59.138Z,94487.63
2022-10-25T18:36:27.375Z,94482.50
2022-10-25T18:38:54.503Z,94489.91
2022-10-25T18:41:29.653Z,94487.28
2022-10-25T18:43:57.041Z,94483.09
2022-10-25T18:46:24.853Z,94465.97
2022-10-25T18:48:54.348Z,94472.47
2022-10-25T18:51:22.208Z,94467.53
2022-10-25T18:53:53.125Z,94463.97
2022-10-25T18:56:21.984Z,94477.16
2022-10-25T18:58:49.003Z,94475.00
2022-10-25T19:01:18.033Z,94476.81
2022-10-25T19:03:44.566Z,94474.50
2022-10-25T19:06:11.077Z,94481.09
2022-10-25T19:08:37.957Z,94474.94
2022-10-25T19:11:10.261Z,94478.13
2022-10-25T19:13:36.869Z,94477.03
2022-10-25T19:16:03.874Z,94477.03
2022-10-25T19:18:33.240Z,94462.72
2022-10-25T19:21:04.913Z,94459.81
2022-10-25T19:23:31.556Z,94465.66
2022-10-25T19:26:02.619Z,94462.38
2022-10-25T19:28:29.122Z,94453.28
2022-10-25T19:30:55.472Z,94456.97
2022-10-25T19:33:21.851Z,94452.50
2022-10-25T19:35:48.221Z,94455.25
2022-10-25T19:38:14.582Z,94461.63
2022-10-25T19:40:44.975Z,94451.47
2022-10-25T19:43:13.921Z,94436.19
2022-10-25T19:45:42.276Z,94450.22
2022-10-25T19:48:08.608Z,94455.75
2022-10-25T19:50:35.001Z,94443.72
2022-10-25T19:53:01.356Z,94441.09
2022-10-25T19:55:27.738Z,94449.84
2022-10-25T19:57:54.113Z,94453.94
2022-10-25T20:00:20.626Z,94449.91
2022-10-25T20:02:46.994Z,94445.25
2022-10-25T20:05:13.427Z,94441.59
2022-10-25T20:07:39.844Z,94447.41
2022-10-25T20:10:06.694Z,94448.75
2022-10-25T20:12:33.068Z,94447.97
2022-10-25T20:15:00.507Z,94449.63
2022-10-25T20:17:27.062Z,94453.59
2022-10-25T20:19:53.454Z,94455.47
2022-10-25T20:22:19.886Z,94454.22
2022-10-25T20:24:46.364Z,94456.31
2022-10-25T20:27:12.785Z,94453.25
2022-10-25T20:29:39.979Z,94448.59
2022-10-25T20:32:06.353Z,94451.53
2022-10-25T20:34:35.016Z,94446.09
2022-10-25T20:37:03.685Z,94445.13
2022-10-25T20:39:30.139Z,94442.81
2022-10-25T20:41:56.588Z,94442.03
2022-10-25T20:44:23.045Z,94445.72
2022-10-25T20:46:50.331Z,94450.66
2022-10-25T20:49:16.787Z,94452.50
2022-10-25T20:51:43.233Z,94449.88
2022-10-25T20:54:10.056Z,94447.25
2022-10-25T20:56:37.149Z,94442.81
2022-10-25T20:59:04.086Z,94444.66
2022-10-25T21:01:30.586Z,94446.47
2022-10-25T21:03:57.063Z,94438.19
2022-10-25T21:06:24.254Z,94439.22
2022-10-25T21:08:50.683Z,94436.34
2022-10-25T21:11:17.090Z,94437.13
2022-10-25T21:13:43.451Z,94438.94
2022-10-25T21:16:12.461Z,94430.91
2022-10-25T21:18:39.155Z,94430.44
2022-10-25T21:21:08.161Z,94420.47
2022-10-25T21:23:35.085Z,94420.47
2022-10-25T21:26:03.884Z,94410.34
2022-10-25T21:28:36.467Z,94413.72
2022-10-25T21:31:08.238Z,94424.66
2022-10-25T21:33:34.738Z,94423.50
2022-10-25T21:36:20.471Z,94424.84
2022-10-25T21:38:47.095Z,94426.03
2022-10-25T21:41:16.805Z,94418.78
2022-10-25T21:43:45.170Z,94409.78
2022-10-25T21:46:12.926Z,94416.19
2022-10-25T21:48:39.310Z,94421.78
2022-10-25T21:51:06.350Z,94428.44
2022-10-25T21:53:32.829Z,94426.41
2022-10-25T21:56:20.268Z,94415.97
2022-10-25T21:58:48.894Z,94414.41
2022-10-25T22:01:18.244Z,94414.41
2022-10-25T22:03:44.778Z,94423.81
2022-10-25T22:06:13.673Z,94414.16
2022-10-25T22:08:40.641Z,94424.75
2022-10-25T22:11:11.139Z,94422.16
2022-10-25T22:13:38.477Z,94415.41
2022-10-25T22:16:10.657Z,94418.50
2022-10-25T22:18:37.375Z,94416.84
2022-10-25T22:21:07.154Z,94409.19
2022-10-25T22:23:34.434Z,94414.31
2022-10-25T22:26:06.388Z,94410.75
2022-10-25T22:28:36.717Z,94406.59
2022-10-25T22:31:11.837Z,94400.03
2022-10-25T22:33:38.645Z,94397.59
2022-10-25T22:36:13.497Z,94408.53
2022-10-25T22:38:40.202Z,94421.19
2022-10-25T22:41:10.144Z,94402.16
2022-10-25T22:43:38.317Z,94396.25
2022-10-25T22:46:07.022Z,94394.31
2022-10-25T22:48:35.364Z,94392.84
2022-10-25T22:51:02.059Z,94365.88
2022-10-25T22:53:29.256Z,94352.41
2022-10-25T22:56:00.906Z,94335.69
2022-10-25T22:58:28.703Z,94339.31
2022-10-25T23:01:10.132Z,94341.41
2022-10-25T23:03:37.805Z,94343.03
2022-10-25T23:06:05.795Z,94342.16
2022-10-25T23:08:32.700Z,94357.22
2022-10-25T23:11:04.517Z,94338.03
2022-10-25T23:13:32.259Z,94331.28
2022-10-25T23:15:58.946Z,94320.25
2022-10-25T23:18:25.904Z,94334.25
2022-10-25T23:20:54.442Z,94322.56
2022-10-25T23:23:21.634Z,94336.09
2022-10-25T23:25:48.593Z,94370.56
2022-10-25T23:28:14.970Z,94380.03
2022-10-25T23:30:42.869Z,94372.59
2022-10-25T23:33:11.638Z,94361.69
2022-10-25T23:35:40.822Z,94357.81
2022-10-25T23:38:10.879Z,94363.63
2022-10-25T23:40:37.247Z,94363.16
2022-10-25T23:43:03.630Z,94376.22
2022-10-25T23:45:32.074Z,94371.00
2022-10-25T23:47:58.742Z,94375.91
2022-10-25T23:50:25.173Z,94371.47
2022-10-25T23:52:51.809Z,94362.09
2022-10-25T23:55:18.378Z,94371.94
2022-10-25T23:57:44.733Z,94368.28
